ADDS METAR Data INFO
IDs: Format: Raw Decoded Include TAF

Data at: 1955 UTC 15 Dec 2017

KSBP 151856Z 00000KT 10SM CLR 20/M03 A3014 RMK AO2 SLP207 T02001033
KSBP 151756Z 00000KT 10SM CLR 16/M02 A3016 RMK AO2 SLP214 T01561017 10156 20022 51005
KSBP 151656Z 00000KT 10SM CLR 09/M04 A3016 RMK AO2 SLP213 T00891044
KSBP 151556Z 13003KT 9SM CLR 03/M03 A3016 RMK AO2 SLP213 T00331033
KSBP 151456Z 00000KT 10SM CLR 04/M04 A3015 RMK AO2 SLP210 T00391044 53008
KSBP 151356Z 00000KT 10SM CLR 03/M04 A3014 RMK AO2 SLP205 T00331039
KSBP 151256Z 00000KT 10SM CLR 03/M03 A3012 RMK AO2 SLP201 T00331028
KSBP 151156Z 00000KT 10SM CLR 04/M03 A3012 RMK AO2 SLP199 T00441028 10078 20033 56003
KSBP 151056Z 00000KT 10SM CLR 04/M03 A3013 RMK AO2 SLP200 T00441028
KSBP 150956Z 00000KT 10SM CLR 04/M02 A3013 RMK AO2 SLP200 T00441022
KSBP 150856Z 00000KT 10SM CLR 05/M01 A3013 RMK AO2 SLP202 T00501011 50000
KSBP 150756Z 00000KT 10SM CLR 06/M01 A3014 RMK AO2 SLP206 T00611006 402670039
KSBP 150656Z 00000KT 10SM CLR 07/M01 A3014 RMK AO2 SLP205 T00671006
KSBP 150556Z 00000KT 10SM CLR 08/00 A3013 RMK AO2 SLP202 T00780000 10239 20078 53009
KSBP 150456Z 00000KT 10SM CLR 09/03 A3012 RMK AO2 SLP200 T00890033
KSBP 150356Z 10004KT 10SM CLR 09/02 A3011 RMK AO2 SLP196 T00940022
KSBP 150256Z 10003KT 10SM CLR 11/04 A3010 RMK AO2 SLP195 T01110039 51021
KSBP 150156Z 28003KT 10SM CLR 14/09 A3008 RMK AO2 SLP187 T01440094
KSBP 150056Z 32007KT 10SM CLR 16/08 A3006 RMK AO2 SLP181 T01610083
KSBP 142356Z 00000KT 10SM CLR 24/M07 A3004 RMK AO2 SLP172 T02391072 10267 20161 53004
KSBP 142256Z AUTO 00000KT 10SM CLR 26/M06 A3003 RMK AO2 SLP167 T02611056
KSBP 142156Z 16004KT 9SM CLR 26/M06 A3002 RMK AO2 SLP165 T02611056
KSBP 142056Z 00000KT 10SM CLR 26/M05 A3003 RMK AO2 SLP167 T02561050 58009
KSBP 141956Z 00000KT 10SM CLR 24/M07 A3004 RMK AO2 SLP170 T02391067
KSBP 141856Z 00000KT 10SM CLR 21/M06 A3005 RMK AO2 SLP177 T02061061
KSBP 141756Z 00000KT 10SM CLR 16/M06 A3006 RMK AO2 SLP178 T01611061 10161 20039 51018
KSBP 141656Z 13004KT 10SM CLR 13/M06 A3004 RMK AO2 SLP173 T01281061
KSBP 141556Z 14004KT 10SM FU CLR 07/M07 A3002 RMK AO2 SLP167 T00721072
KSBP 141456Z 10005KT 10SM FU CLR 05/M08 A3000 RMK AO2 SLP160 T00501078 53014
KSBP 141356Z 11005KT 10SM CLR 04/M08 A2998 RMK AO2 SLP153 T00441078
KSBP 141256Z 00000KT 10SM CLR 06/M08 A2996 RMK AO2 SLP145 T00561078
KSBP 141156Z 10003KT 10SM CLR 05/M08 A2996 RMK AO2 SLP145 T00501083 10106 20039 58005
KSBP 141056Z 10005KT 10SM CLR 06/M08 A2998 RMK AO2 SLP149 T00611083
KSBP 140956Z 12004KT 10SM CLR 06/M09 A2998 RMK AO2 SLP150 T00561089
KSBP 140856Z 00000KT 10SM CLR 07/M08 A2998 RMK AO2 SLP149 T00671083 58002
KSBP 140756Z 00000KT 10SM CLR 07/M09 A2998 RMK AO2 SLP150 T00671094 402830050